createdAt,value
2022-10-02T00:02:29.849Z,101361.00
2022-10-02T00:05:22.130Z,101379.00
2022-10-02T00:07:57.204Z,101401.03
2022-10-02T00:10:28.758Z,101387.16
2022-10-02T00:13:04.038Z,101386.88
2022-10-02T00:15:37.326Z,101399.97
2022-10-02T00:18:25.150Z,101395.38
2022-10-02T00:21:36.099Z,101390.41
2022-10-02T00:24:08.776Z,101388.13
2022-10-02T00:26:48.116Z,101386.50
2022-10-02T00:29:36.033Z,101390.59
2022-10-02T00:32:28.297Z,101378.34
2022-10-02T00:35:33.907Z,101381.34
2022-10-02T00:38:24.251Z,101399.44
2022-10-02T00:41:02.321Z,101396.94
2022-10-02T00:43:50.394Z,101391.94
2022-10-02T00:46:40.731Z,101385.94
2022-10-02T00:49:41.175Z,101392.09
2022-10-02T00:52:22.682Z,101395.72
2022-10-02T00:55:23.868Z,101383.41
2022-10-02T00:58:16.105Z,101389.91
2022-10-02T01:00:53.758Z,101390.81
2022-10-02T01:03:29.846Z,101393.75
2022-10-02T01:05:59.117Z,101392.25
2022-10-02T01:08:28.887Z,101391.97
2022-10-02T01:10:58.371Z,101375.97
2022-10-02T01:13:28.372Z,101393.09
2022-10-02T01:16:01.474Z,101382.03
2022-10-02T01:18:32.938Z,101321.53
2022-10-02T01:21:15.291Z,101383.00
2022-10-02T01:23:56.781Z,101384.78
2022-10-02T01:26:26.152Z,101383.28
2022-10-02T01:28:55.623Z,101380.16
2022-10-02T01:31:25.201Z,101381.06
2022-10-02T01:33:55.179Z,101390.22
2022-10-02T01:36:25.347Z,101385.31
2022-10-02T01:38:56.708Z,101381.44
2022-10-02T01:41:26.403Z,101378.25
2022-10-02T01:44:01.191Z,101384.78
2022-10-02T01:46:35.596Z,101388.06
2022-10-02T01:49:43.990Z,101395.44
2022-10-02T01:52:22.934Z,101385.75
2022-10-02T01:55:23.074Z,101390.97
2022-10-02T01:57:57.421Z,101389.41
2022-10-02T02:00:29.267Z,101392.94
2022-10-02T02:03:20.476Z,101392.06
2022-10-02T02:06:04.699Z,101385.50
2022-10-02T02:08:52.208Z,101385.41
2022-10-02T02:11:24.241Z,101383.00
2022-10-02T02:14:18.758Z,101379.72
2022-10-02T02:16:52.811Z,101377.34
2022-10-02T02:19:34.084Z,101307.00
2022-10-02T02:22:04.481Z,101374.06
2022-10-02T02:24:59.458Z,101370.78
2022-10-02T02:27:33.718Z,101375.59
2022-10-02T02:30:15.417Z,101382.84
2022-10-02T02:32:53.480Z,101391.69
2022-10-02T02:35:29.100Z,101385.22
2022-10-02T02:38:05.154Z,101369.19
2022-10-02T02:40:39.655Z,101382.28
2022-10-02T02:43:15.106Z,101390.03
2022-10-02T02:45:53.128Z,101391.59
2022-10-02T02:48:46.097Z,101381.06
2022-10-02T02:51:20.872Z,101381.06
2022-10-02T02:53:56.523Z,101384.25
2022-10-02T02:56:27.870Z,101389.31
2022-10-02T02:59:00.243Z,101386.00
2022-10-02T03:01:29.809Z,101388.31
2022-10-02T03:03:59.222Z,101381.75
2022-10-02T03:06:40.279Z,101389.03
2022-10-02T03:09:14.697Z,101384.59
2022-10-02T03:11:51.355Z,101392.47
2022-10-02T03:14:44.600Z,101377.94
2022-10-02T03:17:43.171Z,101376.59
2022-10-02T03:20:22.512Z,101382.28
2022-10-02T03:22:57.764Z,101382.63
2022-10-02T03:25:31.976Z,101379.44
2022-10-02T03:28:11.390Z,101369.69
2022-10-02T03:30:42.631Z,101381.03
2022-10-02T03:33:16.656Z,101373.88
2022-10-02T03:35:47.047Z,101373.50
2022-10-02T03:38:17.568Z,101388.81
2022-10-02T03:40:46.883Z,101380.50
2022-10-02T03:43:25.273Z,101381.22
2022-10-02T03:45:54.523Z,101385.31
2022-10-02T03:48:24.307Z,101385.31
2022-10-02T03:50:54.010Z,101381.31
2022-10-02T03:53:27.312Z,101381.66
2022-10-02T03:56:05.769Z,101381.56
2022-10-02T03:58:36.055Z,101383.16
2022-10-02T04:01:07.524Z,101381.94
2022-10-02T04:03:41.128Z,101387.59
2022-10-02T04:06:29.219Z,101384.31
2022-10-02T04:09:05.742Z,101386.69
2022-10-02T04:12:06.083Z,101397.59
2022-10-02T04:14:48.711Z,101393.78
2022-10-02T04:17:30.556Z,101403.44
2022-10-02T04:20:06.227Z,101398.75
2022-10-02T04:22:48.411Z,101394.91
2022-10-02T04:25:27.945Z,101401.31
2022-10-02T04:28:05.093Z,101381.81
2022-10-02T04:30:34.441Z,101398.47
2022-10-02T04:33:25.087Z,101403.34
2022-10-02T04:36:12.348Z,101396.53
2022-10-02T04:39:00.344Z,101393.69
2022-10-02T04:41:50.985Z,101397.31
2022-10-02T04:44:53.126Z,101393.69
2022-10-02T04:48:11.542Z,101400.59
2022-10-02T04:51:17.323Z,101402.56
2022-10-02T04:54:19.064Z,101404.13
2022-10-02T04:57:04.474Z,101416.28
2022-10-02T05:00:12.372Z,101430.13
2022-10-02T05:02:59.611Z,101427.03
2022-10-02T05:05:39.934Z,101424.66
2022-10-02T05:08:19.709Z,101414.81
2022-10-02T05:11:24.539Z,101432.44
2022-10-02T05:14:14.098Z,101431.28
2022-10-02T05:16:52.807Z,101444.78
2022-10-02T05:19:40.109Z,101448.06
2022-10-02T05:22:37.318Z,101428.38
2022-10-02T05:25:22.639Z,101426.78
2022-10-02T05:28:24.043Z,101432.13
2022-10-02T05:31:09.000Z,101438.31
2022-10-02T05:34:16.339Z,101430.69
2022-10-02T05:37:23.180Z,101435.13
2022-10-02T05:40:17.085Z,101442.94
2022-10-02T05:43:07.402Z,101457.91
2022-10-02T05:46:06.021Z,101460.31
2022-10-02T05:48:47.123Z,101459.41
2022-10-02T05:51:25.994Z,101463.50
2022-10-02T05:54:13.234Z,101467.47
2022-10-02T05:56:47.320Z,101466.97
2022-10-02T05:59:34.651Z,101470.66
2022-10-02T06:02:13.514Z,101468.19
2022-10-02T06:04:50.486Z,101474.22
2022-10-02T06:07:20.618Z,101478.56
2022-10-02T06:10:01.711Z,101462.41
2022-10-02T06:12:38.577Z,101486.63
2022-10-02T06:15:29.086Z,101491.41
2022-10-02T06:18:10.503Z,101491.69
2022-10-02T06:21:02.180Z,101489.56
2022-10-02T06:23:40.131Z,101487.78
2022-10-02T06:26:16.675Z,101488.47
2022-10-02T06:28:54.262Z,101495.78
2022-10-02T06:31:46.490Z,101501.81
2022-10-02T06:34:17.311Z,101503.03
2022-10-02T06:37:14.238Z,101494.25
2022-10-02T06:40:27.170Z,101495.78
2022-10-02T06:43:02.194Z,101513.31
2022-10-02T06:45:46.250Z,101515.16
2022-10-02T06:48:27.727Z,101515.44
2022-10-02T06:51:08.656Z,101516.50
2022-10-02T06:53:56.036Z,101508.63
2022-10-02T06:56:39.547Z,101505.22
2022-10-02T06:59:37.708Z,101511.53
2022-10-02T07:02:25.536Z,101520.63
2022-10-02T07:05:26.427Z,101514.41
2022-10-02T07:08:30.071Z,101522.28
2022-10-02T07:11:02.010Z,101522.09
2022-10-02T07:13:50.258Z,101519.59
2022-10-02T07:16:53.738Z,101535.84
2022-10-02T07:19:50.805Z,101528.25
2022-10-02T07:22:44.911Z,101538.16
2022-10-02T07:25:46.821Z,101540.59
2022-10-02T07:28:44.004Z,101535.63
2022-10-02T07:31:49.555Z,101545.41
2022-10-02T07:34:33.342Z,101547.59
2022-10-02T07:37:33.072Z,101545.09
2022-10-02T07:40:24.077Z,101546.00
2022-10-02T07:43:19.242Z,101559.81
2022-10-02T07:45:54.284Z,101555.72
2022-10-02T07:48:36.195Z,101565.38
2022-10-02T07:51:37.522Z,101569.16
2022-10-02T07:54:21.726Z,101574.41
2022-10-02T07:56:53.620Z,101576.69
2022-10-02T07:59:23.649Z,101576.34
2022-10-02T08:01:55.408Z,101567.22
2022-10-02T08:04:36.866Z,101577.56
2022-10-02T08:07:07.842Z,101575.06
2022-10-02T08:09:45.380Z,101586.00
2022-10-02T08:12:36.630Z,101585.66
2022-10-02T08:15:08.876Z,101586.09
2022-10-02T08:17:50.664Z,101588.16
2022-10-02T08:20:43.095Z,101592.25
2022-10-02T08:23:31.410Z,101594.97
2022-10-02T08:26:07.684Z,101592.66
2022-10-02T08:29:01.689Z,101598.13
2022-10-02T08:31:31.175Z,101602.47
2022-10-02T08:34:02.710Z,101604.91
2022-10-02T08:36:53.313Z,101611.72
2022-10-02T08:39:36.154Z,101609.41
2022-10-02T08:42:08.359Z,101621.78
2022-10-02T08:45:05.139Z,101633.41
2022-10-02T08:47:56.593Z,101620.88
2022-10-02T08:50:40.744Z,101629.59
2022-10-02T08:53:34.984Z,101636.41
2022-10-02T08:56:07.954Z,101639.31
2022-10-02T08:59:14.151Z,101653.59
2022-10-02T09:01:59.769Z,101646.56
2022-10-02T09:04:49.432Z,101662.81
2022-10-02T09:07:40.234Z,101653.00
2022-10-02T09:10:49.830Z,101653.94
2022-10-02T09:13:42.532Z,101650.06
2022-10-02T09:16:11.878Z,101664.00
2022-10-02T09:18:58.681Z,101657.38
2022-10-02T09:21:49.107Z,101658.06
2022-10-02T09:24:27.394Z,101665.47
2022-10-02T09:27:18.971Z,101661.31
2022-10-02T09:30:23.063Z,101664.69
2022-10-02T09:33:30.012Z,101660.88
2022-10-02T09:36:24.821Z,101656.19
2022-10-02T09:39:23.012Z,101652.81
2022-10-02T09:42:22.795Z,101655.09
2022-10-02T09:45:32.443Z,101656.75
2022-10-02T09:48:13.966Z,101661.19
2022-10-02T09:51:21.648Z,101663.03
2022-10-02T09:54:46.978Z,101661.72
2022-10-02T09:57:50.259Z,101668.25
2022-10-02T10:00:25.618Z,101677.00
2022-10-02T10:03:16.718Z,101679.19
2022-10-02T10:05:58.048Z,101678.59
2022-10-02T10:08:39.270Z,101685.91
2022-10-02T10:11:32.333Z,101690.66
2022-10-02T10:14:26.022Z,101676.66
2022-10-02T10:17:30.638Z,101692.69
2022-10-02T10:20:22.508Z,101698.03
2022-10-02T10:23:20.598Z,101691.50
2022-10-02T10:26:01.067Z,101685.53
2022-10-02T10:28:51.828Z,101694.88
2022-10-02T10:31:49.317Z,101702.53
2022-10-02T10:34:56.065Z,101696.63
2022-10-02T10:37:46.719Z,101710.63
2022-10-02T10:40:36.739Z,101698.66
2022-10-02T10:43:50.219Z,101711.06
2022-10-02T10:46:38.031Z,101723.13
2022-10-02T10:49:30.383Z,101717.13
2022-10-02T10:52:17.898Z,101723.78
2022-10-02T10:55:16.684Z,101729.06
2022-10-02T10:58:00.996Z,101731.81
2022-10-02T11:00:43.915Z,101728.25
2022-10-02T11:03:50.389Z,101745.16
2022-10-02T11:06:51.841Z,101747.66
2022-10-02T11:09:39.519Z,101748.72
2022-10-02T11:12:39.201Z,101747.84
2022-10-02T11:15:13.166Z,101749.84
2022-10-02T11:18:09.387Z,101737.78
2022-10-02T11:20:41.700Z,101739.25
2022-10-02T11:23:46.669Z,101729.22
2022-10-02T11:26:15.936Z,101744.50
2022-10-02T11:29:06.721Z,101741.31
2022-10-02T11:31:36.305Z,101738.78
2022-10-02T11:34:24.492Z,101754.50
2022-10-02T11:37:11.508Z,101748.34
2022-10-02T11:40:36.795Z,101757.22
2022-10-02T11:43:30.887Z,101753.41
2022-10-02T11:46:15.433Z,101751.47
2022-10-02T11:48:47.694Z,101753.88
2022-10-02T11:51:30.699Z,101767.63
2022-10-02T11:54:21.060Z,101771.91
2022-10-02T11:57:23.498Z,101761.91
2022-10-02T12:00:17.545Z,101762.84
2022-10-02T12:03:01.952Z,101768.72
2022-10-02T12:05:56.131Z,101764.25
2022-10-02T12:08:47.510Z,101767.56
2022-10-02T12:11:27.030Z,101766.94
2022-10-02T12:14:07.838Z,101767.31
2022-10-02T12:16:58.935Z,101759.13
2022-10-02T12:20:05.594Z,101757.06
2022-10-02T12:23:30.920Z,101765.50
2022-10-02T12:26:20.793Z,101764.88
2022-10-02T12:29:02.509Z,101771.09
2022-10-02T12:31:40.097Z,101770.59
2022-10-02T12:34:33.419Z,101775.50
2022-10-02T12:37:16.990Z,101774.53
2022-10-02T12:40:04.529Z,101773.09
2022-10-02T12:43:00.262Z,101776.69
2022-10-02T12:45:50.365Z,101787.06
2022-10-02T12:48:45.992Z,101786.91
2022-10-02T12:51:35.608Z,101784.38
2022-10-02T12:54:33.758Z,101776.31
2022-10-02T12:57:58.893Z,101795.91
2022-10-02T13:00:48.626Z,101776.00
2022-10-02T13:03:38.506Z,101779.03
2022-10-02T13:06:34.262Z,101773.78
2022-10-02T13:09:19.403Z,101783.34
2022-10-02T13:12:04.120Z,101778.53
2022-10-02T13:15:04.575Z,101786.66
2022-10-02T13:17:49.455Z,101790.31
2022-10-02T13:20:42.000Z,101781.34
2022-10-02T13:23:17.146Z,101794.50
2022-10-02T13:26:22.371Z,101784.66
2022-10-02T13:29:24.339Z,101784.84
2022-10-02T13:32:14.983Z,101789.59
2022-10-02T13:35:05.855Z,101796.00
2022-10-02T13:37:40.994Z,101779.97
2022-10-02T13:40:35.183Z,101791.16
2022-10-02T13:43:29.578Z,101796.22
2022-10-02T13:46:05.141Z,101798.59
2022-10-02T13:48:43.553Z,101790.50
2022-10-02T13:51:27.903Z,101795.09
2022-10-02T13:54:04.854Z,101806.53
2022-10-02T13:56:58.178Z,101794.69
2022-10-02T13:59:42.228Z,101807.06
2022-10-02T14:02:40.840Z,101818.16
2022-10-02T14:05:25.178Z,101812.41
2022-10-02T14:08:28.074Z,101828.25
2022-10-02T14:11:34.375Z,101826.50
2022-10-02T14:14:39.556Z,101822.44
2022-10-02T14:17:31.117Z,101829.69
2022-10-02T14:20:25.166Z,101831.50
2022-10-02T14:23:20.982Z,101836.09
2022-10-02T14:26:01.456Z,101831.97
2022-10-02T14:28:56.923Z,101835.69
2022-10-02T14:31:46.452Z,101833.78
2022-10-02T14:34:18.459Z,101835.59
2022-10-02T14:37:16.635Z,101830.72
2022-10-02T14:39:46.321Z,101845.63
2022-10-02T14:42:18.615Z,101846.16
2022-10-02T14:45:06.822Z,101848.69
2022-10-02T14:47:54.718Z,101848.53
2022-10-02T14:50:48.259Z,101858.94
2022-10-02T14:53:47.724Z,101865.47
2022-10-02T14:56:34.927Z,101855.59
2022-10-02T14:59:11.026Z,101858.78
2022-10-02T15:02:10.882Z,101859.97
2022-10-02T15:05:17.158Z,101864.75
2022-10-02T15:07:48.110Z,101870.44
2022-10-02T15:10:35.446Z,101873.03
2022-10-02T15:13:28.434Z,101864.66
2022-10-02T15:16:41.790Z,101871.03
2022-10-02T15:19:35.260Z,101873.75
2022-10-02T15:22:22.391Z,101874.28
2022-10-02T15:25:18.198Z,101870.19
2022-10-02T15:28:12.085Z,101871.75
2022-10-02T15:30:59.228Z,101883.66
2022-10-02T15:33:38.116Z,101877.94
2022-10-02T15:36:13.044Z,101891.91
2022-10-02T15:39:17.744Z,101882.31
2022-10-02T15:42:10.000Z,101889.78
2022-10-02T15:45:01.587Z,101877.25
2022-10-02T15:47:46.107Z,101899.00
2022-10-02T15:50:36.812Z,101909.41
2022-10-02T15:53:48.584Z,101917.91
2022-10-02T15:56:29.934Z,101916.22
2022-10-02T15:59:14.833Z,101920.25
2022-10-02T16:02:12.865Z,101913.19
2022-10-02T16:05:15.289Z,101926.72
2022-10-02T16:08:06.332Z,101933.69
2022-10-02T16:10:38.604Z,101931.28
2022-10-02T16:13:16.058Z,101930.94
2022-10-02T16:15:57.407Z,101943.41
2022-10-02T16:18:39.268Z,101944.72
2022-10-02T16:21:22.106Z,101944.38
2022-10-02T16:24:09.425Z,101958.75
2022-10-02T16:27:16.757Z,101962.06
2022-10-02T16:29:58.366Z,101977.25
2022-10-02T16:32:52.689Z,101969.25
2022-10-02T16:36:01.288Z,101980.19
2022-10-02T16:38:49.453Z,101982.69
2022-10-02T16:41:37.103Z,101988.94
2022-10-02T16:44:28.614Z,101989.63
2022-10-02T16:47:07.415Z,101994.22
2022-10-02T16:50:15.851Z,102004.84
2022-10-02T16:53:08.219Z,101996.91
2022-10-02T16:55:53.859Z,102015.19
2022-10-02T16:58:32.530Z,102010.16
2022-10-02T17:01:23.895Z,102020.94
2022-10-02T17:04:21.032Z,102028.13
2022-10-02T17:07:08.930Z,102036.41
2022-10-02T17:09:50.848Z,102042.41
2022-10-02T17:12:47.675Z,102048.81
2022-10-02T17:15:37.812Z,102055.81
2022-10-02T17:18:15.995Z,102061.69
2022-10-02T17:20:56.657Z,102063.44
2022-10-02T17:24:04.482Z,102061.66
2022-10-02T17:26:49.460Z,102074.16
2022-10-02T17:29:52.987Z,102075.63
2022-10-02T17:32:56.751Z,102081.00
2022-10-02T17:35:50.582Z,102091.38
2022-10-02T17:38:34.156Z,102094.00
2022-10-02T17:41:45.066Z,102104.69
2022-10-02T17:44:33.999Z,102105.59
2022-10-02T17:47:23.091Z,102120.38
2022-10-02T17:50:07.751Z,102124.97
2022-10-02T17:52:55.537Z,102131.84
2022-10-02T17:56:13.393Z,102118.38
2022-10-02T17:59:09.216Z,102125.38
2022-10-02T18:01:53.053Z,102124.31
2022-10-02T18:04:56.937Z,102135.75
2022-10-02T18:08:06.951Z,102128.28
2022-10-02T18:11:01.937Z,102146.47
2022-10-02T18:14:00.702Z,102161.97
2022-10-02T18:17:07.922Z,102161.59
2022-10-02T18:20:10.973Z,102170.31
2022-10-02T18:22:49.352Z,102171.16
2022-10-02T18:25:31.797Z,102177.34
2022-10-02T18:28:32.878Z,102175.75
2022-10-02T18:31:55.758Z,102177.84
2022-10-02T18:34:29.571Z,102179.19
2022-10-02T18:37:27.198Z,102186.09
2022-10-02T18:40:18.525Z,102194.28
2022-10-02T18:43:12.046Z,102203.28
2022-10-02T18:46:13.499Z,102205.78
2022-10-02T18:49:25.134Z,102200.56
2022-10-02T18:52:13.171Z,102204.72
2022-10-02T18:55:11.421Z,102207.59
2022-10-02T18:57:59.658Z,102215.78
2022-10-02T19:00:53.548Z,102211.78
2022-10-02T19:03:56.134Z,102203.06
2022-10-02T19:06:48.270Z,102220.81
2022-10-02T19:09:26.710Z,102218.03
2022-10-02T19:12:05.149Z,102216.44
2022-10-02T19:14:35.151Z,102227.44
2022-10-02T19:17:05.930Z,102229.88
2022-10-02T19:19:36.949Z,102212.94
2022-10-02T19:22:20.741Z,102228.38
2022-10-02T19:24:54.346Z,102233.25
2022-10-02T19:27:31.258Z,102232.47
2022-10-02T19:30:03.840Z,102237.75
2022-10-02T19:32:40.477Z,102244.28
2022-10-02T19:35:19.257Z,102243.91
2022-10-02T19:37:52.039Z,102254.03
2022-10-02T19:40:29.243Z,102257.75
2022-10-02T19:43:21.175Z,102256.97
2022-10-02T19:45:53.968Z,102264.25
2022-10-02T19:48:23.419Z,102252.97
2022-10-02T19:50:55.019Z,102262.72
2022-10-02T19:53:26.026Z,102272.06
2022-10-02T19:56:03.991Z,102273.28
2022-10-02T19:58:48.542Z,102278.16
2022-10-02T20:01:28.833Z,102277.78
2022-10-02T20:04:01.554Z,102278.63
2022-10-02T20:06:37.694Z,102276.66
2022-10-02T20:09:18.960Z,102282.34
2022-10-02T20:11:56.246Z,102287.59
2022-10-02T20:14:38.993Z,102281.53
2022-10-02T20:17:08.986Z,102297.72
2022-10-02T20:20:00.118Z,102293.72
2022-10-02T20:23:01.709Z,102300.22
2022-10-02T20:25:34.527Z,102301.88
2022-10-02T20:28:28.903Z,102314.03
2022-10-02T20:31:04.080Z,102321.31
2022-10-02T20:33:39.475Z,102324.59
2022-10-02T20:36:17.216Z,102321.34
2022-10-02T20:39:06.096Z,102318.13
2022-10-02T20:42:13.472Z,102327.84
2022-10-02T20:44:43.349Z,102319.75
2022-10-02T20:47:28.815Z,102319.34
2022-10-02T20:50:23.315Z,102320.56
2022-10-02T20:53:07.530Z,102327.47
2022-10-02T20:56:16.821Z,102328.72
2022-10-02T20:58:55.487Z,102337.59
2022-10-02T21:01:38.680Z,102341.63
2022-10-02T21:04:26.622Z,102341.63
2022-10-02T21:07:35.142Z,102348.13
2022-10-02T21:10:26.359Z,102357.81
2022-10-02T21:13:17.283Z,102363.91
2022-10-02T21:16:02.603Z,102377.66
2022-10-02T21:18:44.580Z,102367.97
2022-10-02T21:21:42.182Z,102374.06
2022-10-02T21:24:34.763Z,102382.13
2022-10-02T21:27:25.724Z,102382.56
2022-10-02T21:30:22.825Z,102389.41
2022-10-02T21:33:09.236Z,102393.88
2022-10-02T21:35:47.310Z,102404.78
2022-10-02T21:38:38.120Z,102399.94
2022-10-02T21:41:32.891Z,102403.16
2022-10-02T21:44:37.401Z,102412.06
2022-10-02T21:47:28.152Z,102418.13
2022-10-02T21:50:15.146Z,102424.97
2022-10-02T21:53:21.931Z,102420.94
2022-10-02T21:56:28.864Z,102433.03
2022-10-02T21:59:24.532Z,102429.00
2022-10-02T22:02:11.689Z,102427.38
2022-10-02T22:05:02.599Z,102431.03
2022-10-02T22:07:46.648Z,102429.44
2022-10-02T22:10:40.603Z,102427.78
2022-10-02T22:13:34.156Z,102435.50
2022-10-02T22:16:45.142Z,102441.94
2022-10-02T22:19:51.817Z,102438.69
2022-10-02T22:22:38.423Z,102439.91
2022-10-02T22:25:32.997Z,102442.75
2022-10-02T22:28:11.457Z,102445.97
2022-10-02T22:30:59.114Z,102447.97
2022-10-02T22:33:47.143Z,102450.38
2022-10-02T22:36:39.179Z,102445.16
2022-10-02T22:39:35.461Z,102458.03
2022-10-02T22:42:14.982Z,102459.63
2022-10-02T22:45:03.191Z,102462.09
2022-10-02T22:47:51.447Z,102457.22
2022-10-02T22:50:48.187Z,102458.84
2022-10-02T22:53:30.355Z,102453.19
2022-10-02T22:56:00.301Z,102458.44
2022-10-02T22:58:42.643Z,102451.97
2022-10-02T23:01:24.496Z,102459.63
2022-10-02T23:04:19.162Z,102452.38
2022-10-02T23:06:55.471Z,102458.03
2022-10-02T23:09:36.632Z,102449.94
2022-10-02T23:12:27.823Z,102458.00
2022-10-02T23:15:23.397Z,102460.81
2022-10-02T23:18:02.123Z,102462.00
2022-10-02T23:21:05.340Z,102464.41
2022-10-02T23:23:51.009Z,102456.75
2022-10-02T23:26:34.537Z,102465.22
2022-10-02T23:29:33.514Z,102466.81
2022-10-02T23:32:24.364Z,102469.97
2022-10-02T23:35:17.818Z,102467.97
2022-10-02T23:38:06.928Z,102470.78
2022-10-02T23:41:37.173Z,102472.34
2022-10-02T23:44:17.746Z,102476.38
2022-10-02T23:46:54.088Z,102477.94
2022-10-02T23:49:33.893Z,102471.47
2022-10-02T23:52:06.140Z,102484.00
2022-10-02T23:54:56.903Z,102484.75
2022-10-02T23:57:35.198Z,102479.47
